createdAt,value
2018-08-18T00:00:02.788Z,90.4
2018-08-18T00:05:08.248Z,90.8
2018-08-18T00:10:05.639Z,90.6
2018-08-18T00:15:06.007Z,91
2018-08-18T00:20:03.401Z,91
2018-08-18T00:25:02.776Z,91.1
2018-08-18T00:30:03.108Z,91.3
2018-08-18T00:35:07.826Z,91.6
2018-08-18T00:40:05.182Z,91.8
2018-08-18T00:45:05.618Z,91.9
2018-08-18T00:50:02.956Z,91.9
2018-08-18T00:55:18.551Z,92.4
2018-08-18T01:00:02.937Z,92.4
2018-08-18T01:05:10.835Z,92.9
2018-08-18T01:10:02.705Z,92.9
2018-08-18T01:15:02.927Z,92.9
2018-08-18T01:20:05.985Z,93.7
2018-08-18T01:25:05.326Z,93.8
2018-08-18T01:30:05.209Z,93.9
2018-08-18T01:35:15.715Z,94
2018-08-18T01:40:03.508Z,94
2018-08-18T01:45:05.448Z,94.4
2018-08-18T01:50:05.335Z,94.4
2018-08-18T01:55:05.593Z,94.1
2018-08-18T02:00:20.692Z,94.4
2018-08-18T02:05:05.886Z,94.8
2018-08-18T02:10:10.282Z,95.2
2018-08-18T02:15:03.086Z,95.2
2018-08-18T02:20:06.157Z,95.3
2018-08-18T02:25:05.375Z,95.4
2018-08-18T02:30:10.388Z,96
2018-08-18T02:35:05.644Z,96.8
2018-08-18T02:40:06.020Z,97.4
2018-08-18T02:45:02.753Z,97.4
2018-08-18T02:50:05.709Z,98.1
2018-08-18T02:55:16.076Z,98.1
2018-08-18T03:00:03.500Z,98.1
2018-08-18T03:05:02.997Z,98.4
2018-08-18T03:10:18.087Z,98.9
2018-08-18T03:15:05.821Z,99.2
2018-08-18T03:20:05.816Z,99.1
2018-08-18T03:25:10.215Z,98.9
2018-08-18T03:30:07.709Z,98.9
2018-08-18T03:35:05.537Z,99
2018-08-18T03:40:03.406Z,99
2018-08-18T03:45:07.855Z,98.9
2018-08-18T03:50:05.923Z,99.1
2018-08-18T03:55:05.297Z,99.6
2018-08-18T04:00:02.678Z,99.6
2018-08-18T04:05:23.248Z,99.9
2018-08-18T04:10:03.064Z,99.9
2018-08-18T04:15:03.534Z,99.9
2018-08-18T04:20:03.012Z,99.9
2018-08-18T04:25:03.343Z,99.9
2018-08-18T04:30:05.336Z,99.9
2018-08-18T04:35:05.643Z,99.9
2018-08-18T04:40:08.591Z,99.9
2018-08-18T04:45:05.419Z,99.9
2018-08-18T04:50:10.396Z,99.9
2018-08-18T04:55:05.787Z,99.9
2018-08-18T05:00:05.836Z,99.9
2018-08-18T05:05:03.548Z,99.9
2018-08-18T05:10:05.867Z,99.9
2018-08-18T05:15:02.615Z,99.9
2018-08-18T05:20:08.142Z,99.9
2018-08-18T05:25:08.531Z,99.9
2018-08-18T05:30:02.954Z,99.9
2018-08-18T05:35:03.347Z,99.9
2018-08-18T05:40:05.735Z,99.9
2018-08-18T05:45:06.091Z,99.9
2018-08-18T05:50:21.083Z,99.9
2018-08-18T05:55:02.755Z,99.9
2018-08-18T06:00:03.180Z,99.9
2018-08-18T06:05:03.445Z,99.9
2018-08-18T06:10:03.300Z,99.9
2018-08-18T06:15:15.387Z,99.6
2018-08-18T06:20:02.829Z,99.6
2018-08-18T06:25:05.807Z,99.1
2018-08-18T06:30:03.266Z,99.1
2018-08-18T06:35:20.343Z,98.3
2018-08-18T06:40:05.748Z,97.8
2018-08-18T06:45:02.563Z,97.8
2018-08-18T06:50:07.972Z,96.4
2018-08-18T06:55:06.387Z,96.2
2018-08-18T07:00:02.829Z,96.2
2018-08-18T07:05:15.926Z,94.7
2018-08-18T07:10:05.266Z,94.5
2018-08-18T07:15:05.614Z,93.2
2018-08-18T07:20:13.225Z,92.1
2018-08-18T07:25:03.440Z,92.1
2018-08-18T07:30:05.648Z,90.7
2018-08-18T07:35:06.014Z,90.7
2018-08-18T07:40:02.867Z,90.7
2018-08-18T07:45:10.826Z,90.3
2018-08-18T07:50:10.982Z,88.9
2018-08-18T07:55:02.646Z,88.8
2018-08-18T08:00:08.505Z,85.3
2018-08-18T08:05:02.919Z,85.3
2018-08-18T08:10:02.720Z,84.8
2018-08-18T08:15:05.663Z,81
2018-08-18T08:20:03.384Z,81
2018-08-18T08:25:05.321Z,76.4
2018-08-18T08:30:05.181Z,74
2018-08-18T08:35:08.243Z,73.2
2018-08-18T08:40:03.107Z,73.2
2018-08-18T08:45:10.967Z,73.4
2018-08-18T08:50:03.370Z,73.4
2018-08-18T08:55:07.749Z,72.7
2018-08-18T09:00:03.245Z,72.7
2018-08-18T09:05:06.055Z,70.4
2018-08-18T09:10:02.945Z,70.4
2018-08-18T09:15:06.039Z,72.9
2018-08-18T09:20:03.476Z,72.8
2018-08-18T09:25:02.803Z,73.4
2018-08-18T09:30:08.266Z,65.8
2018-08-18T09:35:07.789Z,59.7
2018-08-18T09:40:02.844Z,59.8
2018-08-18T09:45:03.190Z,62.7
2018-08-18T09:50:02.723Z,63.9
2018-08-18T09:55:03.173Z,64.7
2018-08-18T10:00:02.603Z,64.6
2018-08-18T10:05:05.573Z,64.8
2018-08-18T10:10:06.065Z,63.3
2018-08-18T10:15:10.534Z,61.9
2018-08-18T10:20:05.521Z,62.1
2018-08-18T10:25:05.060Z,60
2018-08-18T10:30:05.963Z,60.6
2018-08-18T10:35:05.345Z,59.7
2018-08-18T10:40:03.213Z,59.6
2018-08-18T10:45:25.391Z,61.6
2018-08-18T10:50:17.997Z,62.1
2018-08-18T10:55:03.300Z,62.1
2018-08-18T11:00:07.736Z,60.4
2018-08-18T11:05:10.750Z,61
2018-08-18T11:10:02.641Z,61
2018-08-18T11:15:03.037Z,59.2
2018-08-18T11:20:03.500Z,59.2
2018-08-18T11:25:05.631Z,57.9
2018-08-18T11:30:08.358Z,57.9
2018-08-18T11:35:07.767Z,57
2018-08-18T11:40:07.772Z,56.5
2018-08-18T11:45:15.754Z,57.6
2018-08-18T11:50:10.716Z,57.4
2018-08-18T11:55:02.561Z,57.4
2018-08-18T12:00:08.080Z,57.7
2018-08-18T12:05:10.891Z,56.7
2018-08-18T12:10:02.738Z,56.5
2018-08-18T12:15:05.719Z,56.1
2018-08-18T12:20:05.748Z,54.5
2018-08-18T12:25:02.612Z,54.5
2018-08-18T12:30:10.592Z,54.4
2018-08-18T12:35:03.455Z,54.4
2018-08-18T12:40:08.597Z,54.8
2018-08-18T12:45:02.974Z,54.8
2018-08-18T12:50:03.751Z,54.3
2018-08-18T12:55:05.451Z,54.2
2018-08-18T13:00:03.102Z,54.3
2018-08-18T13:05:02.635Z,54
2018-08-18T13:10:05.130Z,51.4
2018-08-18T13:15:03.166Z,51.4
2018-08-18T13:20:02.586Z,51.9
2018-08-18T13:25:08.222Z,51
2018-08-18T13:30:10.268Z,52.2
2018-08-18T13:35:05.533Z,53.7
2018-08-18T13:40:08.661Z,54.1
2018-08-18T13:45:15.631Z,52.6
2018-08-18T13:50:03.025Z,52.5
2018-08-18T13:55:07.622Z,54.8
2018-08-18T14:00:03.060Z,54.9
2018-08-18T14:05:05.159Z,54.1
2018-08-18T14:10:05.590Z,53.7
2018-08-18T14:15:05.941Z,54.4
2018-08-18T14:20:10.993Z,54.4
2018-08-18T14:25:05.539Z,54.1
2018-08-18T14:30:05.541Z,53.7
2018-08-18T14:35:05.783Z,52.4
2018-08-18T14:40:02.694Z,52.3
2018-08-18T14:45:08.259Z,51.3
2018-08-18T14:50:10.460Z,51
2018-08-18T14:55:25.569Z,51.9
2018-08-18T15:00:05.515Z,50.8
2018-08-18T15:05:05.119Z,51
2018-08-18T15:10:02.969Z,51
2018-08-18T15:15:03.472Z,49.9
2018-08-18T15:20:02.996Z,49.1
2018-08-18T15:25:08.397Z,45
2018-08-18T15:30:05.368Z,41.7
2018-08-18T15:35:05.858Z,41.5
2018-08-18T15:40:10.592Z,41.4
2018-08-18T15:45:02.695Z,41.4
2018-08-18T15:50:30.968Z,42
2018-08-18T15:55:10.194Z,43.1
2018-08-18T16:00:02.551Z,43.1
2018-08-18T16:05:20.748Z,44.8
2018-08-18T16:10:05.178Z,45
2018-08-18T16:15:03.123Z,45.1
2018-08-18T16:20:05.174Z,44.8
2018-08-18T16:25:08.334Z,45.4
2018-08-18T16:30:05.375Z,46
2018-08-18T16:35:03.269Z,46
2018-08-18T16:40:05.751Z,46.9
2018-08-18T16:45:02.645Z,46.8
2018-08-18T16:50:08.096Z,46
2018-08-18T16:55:06.057Z,47.3
2018-08-18T17:00:02.623Z,47.3
2018-08-18T17:05:03.102Z,48.3
2018-08-18T17:10:03.504Z,47.8
2018-08-18T17:15:05.631Z,48.3
2018-08-18T17:20:03.046Z,48.2
2018-08-18T17:25:08.605Z,49.2
2018-08-18T17:30:08.311Z,49.3
2018-08-18T17:35:02.922Z,49.3
2018-08-18T17:40:02.785Z,49.2
2018-08-18T17:45:10.859Z,51.2
2018-08-18T17:50:05.693Z,50.7
2018-08-18T17:55:05.168Z,50.2
2018-08-18T18:00:18.233Z,50.7
2018-08-18T18:05:05.970Z,51
2018-08-18T18:10:02.906Z,50.9
2018-08-18T18:15:21.070Z,52.7
2018-08-18T18:20:03.498Z,52.6
2018-08-18T18:25:08.125Z,54.4
2018-08-18T18:30:08.620Z,55
2018-08-18T18:35:10.474Z,56.1
2018-08-18T18:40:05.821Z,56.9
2018-08-18T18:45:02.731Z,56.9
2018-08-18T18:50:03.139Z,57
2018-08-18T18:55:02.622Z,57.9
2018-08-18T19:00:05.691Z,58.9
2018-08-18T19:05:16.112Z,60.3
2018-08-18T19:10:03.161Z,60.2
2018-08-18T19:15:08.465Z,62.7
2018-08-18T19:20:15.786Z,63.5
2018-08-18T19:25:05.105Z,64.5
2018-08-18T19:30:13.606Z,66.7
2018-08-18T19:35:07.978Z,67.5
2018-08-18T19:40:07.901Z,68.5
2018-08-18T19:45:08.252Z,70.2
2018-08-18T19:50:05.165Z,71
2018-08-18T19:55:03.018Z,71
2018-08-18T20:00:08.434Z,74
2018-08-18T20:05:02.805Z,74
2018-08-18T20:10:07.706Z,76.3
2018-08-18T20:15:08.092Z,76.6
2018-08-18T20:20:18.737Z,77
2018-08-18T20:25:05.489Z,77.6
2018-08-18T20:30:13.090Z,78.2
2018-08-18T20:35:03.367Z,78.2
2018-08-18T20:40:03.233Z,79.3
2018-08-18T20:45:02.723Z,80
2018-08-18T20:50:15.884Z,81.7
2018-08-18T20:55:11.110Z,82.2
2018-08-18T21:00:06.206Z,83.2
2018-08-18T21:05:05.722Z,83.9
2018-08-18T21:10:38.024Z,84.9
2018-08-18T21:15:10.957Z,85.7
2018-08-18T21:20:13.478Z,86.7
2018-08-18T21:25:02.768Z,86.7
2018-08-18T21:30:05.835Z,87.8
2018-08-18T21:35:03.522Z,87.7
2018-08-18T21:40:05.237Z,89.2
2018-08-18T21:45:03.099Z,89.2
2018-08-18T21:50:05.093Z,90.2
2018-08-18T21:55:02.999Z,90.1
2018-08-18T22:00:03.338Z,90.3
2018-08-18T22:05:05.273Z,90.9
2018-08-18T22:10:03.149Z,90.9
2018-08-18T22:15:02.581Z,91.4
2018-08-18T22:20:02.993Z,91.5
2018-08-18T22:25:05.956Z,92.1
2018-08-18T22:30:08.373Z,92.4
2018-08-18T22:35:05.267Z,92.5
2018-08-18T22:40:05.669Z,92.7
2018-08-18T22:45:02.557Z,92.7
2018-08-18T22:50:05.446Z,93.1
2018-08-18T22:55:08.390Z,93.4
2018-08-18T23:00:07.828Z,93.4
2018-08-18T23:05:13.234Z,93.5
2018-08-18T23:10:05.798Z,93.7
2018-08-18T23:15:05.174Z,93.9
2018-08-18T23:20:33.320Z,94
2018-08-18T23:25:05.272Z,94.1
2018-08-18T23:30:07.715Z,94.3
2018-08-18T23:35:08.276Z,94.4
2018-08-18T23:40:03.100Z,94.4
2018-08-18T23:45:03.472Z,94.5
2018-08-18T23:50:05.415Z,94.9
2018-08-18T23:55:05.769Z,94.8
